createdAt,value
2019-03-23T00:06:52.217Z,69.93
2019-03-23T00:11:51.534Z,71.50
2019-03-23T00:16:51.210Z,72.50
2019-03-23T00:21:50.468Z,72.12
2019-03-23T00:26:51.194Z,71.96
2019-03-23T00:31:50.333Z,72.23
2019-03-23T00:36:50.142Z,71.74
2019-03-23T00:41:49.216Z,71.85
2019-03-23T00:46:49.164Z,71.56
2019-03-23T00:51:49.564Z,71.79
2019-03-23T00:56:50.239Z,72.13
2019-03-23T01:01:50.177Z,71.78
2019-03-23T01:06:52.386Z,71.39
2019-03-23T01:11:49.404Z,71.30
2019-03-23T01:16:49.228Z,71.87
2019-03-23T01:21:49.153Z,73.69
2019-03-23T01:26:49.323Z,73.41
2019-03-23T01:31:48.188Z,75.31
2019-03-23T01:36:48.241Z,75.83
2019-03-23T01:41:47.208Z,75.27
2019-03-23T01:46:47.443Z,74.75
2019-03-23T01:51:46.350Z,75.18
2019-03-23T01:56:45.302Z,75.44
2019-03-23T02:01:45.308Z,76.00
2019-03-23T02:06:44.306Z,76.24
2019-03-23T02:11:43.269Z,77.58
2019-03-23T02:16:43.251Z,79.94
2019-03-23T02:21:43.214Z,79.89
2019-03-23T02:26:43.221Z,80.38
2019-03-23T02:31:44.321Z,80.45
2019-03-23T02:36:45.097Z,80.85
2019-03-23T02:41:43.349Z,80.64
2019-03-23T02:46:43.259Z,80.92
2019-03-23T02:51:42.263Z,81.16
2019-03-23T02:56:43.213Z,81.00
2019-03-23T03:01:43.178Z,81.64
2019-03-23T03:06:42.247Z,81.94
2019-03-23T03:16:40.631Z,83.02
2019-03-23T03:21:40.284Z,83.67
2019-03-23T03:26:40.225Z,83.83
2019-03-23T03:31:39.296Z,84.23
2019-03-23T03:36:38.234Z,85.22
2019-03-23T03:41:38.207Z,85.43
2019-03-23T03:46:37.532Z,85.97
2019-03-23T03:51:37.256Z,86.02
2019-03-23T03:56:36.230Z,86.09
2019-03-23T04:01:36.082Z,86.13
2019-03-23T04:06:35.337Z,85.96
2019-03-23T04:11:35.460Z,86.16
2019-03-23T04:16:34.742Z,86.74
2019-03-23T04:21:35.277Z,87.04
2019-03-23T04:26:34.475Z,87.23
2019-03-23T04:31:34.447Z,87.28
2019-03-23T04:36:33.384Z,87.77
2019-03-23T04:41:32.229Z,88.31
2019-03-23T04:46:32.257Z,87.70
2019-03-23T04:51:33.278Z,87.32
2019-03-23T04:56:33.198Z,87.02
2019-03-23T05:01:33.255Z,87.08
2019-03-23T05:06:33.398Z,87.23
2019-03-23T05:11:32.272Z,86.81
2019-03-23T05:16:32.394Z,87.09
2019-03-23T05:21:31.605Z,86.89
2019-03-23T05:26:31.285Z,86.89
2019-03-23T05:31:32.481Z,87.46
2019-03-23T05:36:31.625Z,86.59
2019-03-23T05:41:31.291Z,86.72
2019-03-23T05:46:30.268Z,86.48
2019-03-23T05:51:30.221Z,86.71
2019-03-23T05:56:30.416Z,86.53
2019-03-23T06:01:30.459Z,86.46
2019-03-23T06:06:30.458Z,86.32
2019-03-23T06:11:29.254Z,86.43
2019-03-23T06:16:29.250Z,86.50
2019-03-23T06:21:29.243Z,85.89
2019-03-23T06:26:29.294Z,86.17
2019-03-23T06:31:29.517Z,85.75
2019-03-23T06:36:30.507Z,85.84
2019-03-23T06:41:29.422Z,86.03
2019-03-23T06:46:30.320Z,85.82
2019-03-23T06:51:30.276Z,86.10
2019-03-23T06:56:31.349Z,85.22
2019-03-23T07:01:30.472Z,85.52
2019-03-23T07:06:30.411Z,84.76
2019-03-23T07:11:30.474Z,84.88
2019-03-23T07:16:29.262Z,84.12
2019-03-23T07:21:29.451Z,84.48
2019-03-23T07:26:28.290Z,83.79
2019-03-23T07:31:28.302Z,83.29
2019-03-23T07:36:28.519Z,83.25
2019-03-23T07:41:28.284Z,82.92
2019-03-23T07:46:27.263Z,82.39
2019-03-23T07:51:26.490Z,82.41
2019-03-23T07:56:25.433Z,82.15
2019-03-23T08:01:25.282Z,81.77
2019-03-23T08:06:24.720Z,81.57
2019-03-23T08:11:23.498Z,80.47
2019-03-23T08:16:23.524Z,80.42
2019-03-23T08:21:23.291Z,80.47
2019-03-23T08:26:23.430Z,80.00
2019-03-23T08:31:24.414Z,80.12
2019-03-23T08:36:25.369Z,80.32
2019-03-23T08:41:24.363Z,80.35
2019-03-23T08:46:24.480Z,79.52
2019-03-23T08:56:24.508Z,78.45
2019-03-23T09:01:23.285Z,79.56
2019-03-23T09:06:22.648Z,79.00
2019-03-23T09:11:22.610Z,77.94
2019-03-23T09:16:22.437Z,77.62
2019-03-23T09:21:22.492Z,77.59
2019-03-23T09:26:22.482Z,77.08
2019-03-23T09:31:22.313Z,76.68
2019-03-23T09:36:23.005Z,76.43
2019-03-23T09:41:22.748Z,76.90
2019-03-23T09:46:22.322Z,75.44
2019-03-23T09:51:21.409Z,75.58
2019-03-23T09:56:21.298Z,75.45
2019-03-23T10:01:21.346Z,74.49
2019-03-23T10:06:21.400Z,75.51
2019-03-23T10:11:21.316Z,74.15
2019-03-23T10:16:21.447Z,74.57
2019-03-23T10:21:20.341Z,75.13
2019-03-23T10:26:19.492Z,74.89
2019-03-23T10:31:19.344Z,75.24
2019-03-23T10:36:19.369Z,74.73
2019-03-23T10:41:18.556Z,74.86
2019-03-23T10:46:19.339Z,74.51
2019-03-23T10:51:19.329Z,74.78
2019-03-23T10:56:19.352Z,75.39
2019-03-23T11:01:19.328Z,74.15
2019-03-23T11:06:19.322Z,71.12
2019-03-23T11:11:19.347Z,71.75
2019-03-23T11:16:18.330Z,71.71
2019-03-23T11:21:17.524Z,70.21
2019-03-23T11:26:17.470Z,70.92
2019-03-23T11:31:17.474Z,70.52
2019-03-23T11:36:17.626Z,69.72
2019-03-23T11:41:16.423Z,69.38
2019-03-23T11:46:17.363Z,68.19
2019-03-23T11:51:16.449Z,67.49
2019-03-23T11:56:16.422Z,67.14
2019-03-23T12:01:16.412Z,67.33
2019-03-23T12:06:15.298Z,67.80
2019-03-23T12:11:15.357Z,68.72
2019-03-23T12:16:14.427Z,67.02
2019-03-23T12:21:15.418Z,64.61
2019-03-23T12:26:16.405Z,64.99
2019-03-23T12:31:16.402Z,65.26
2019-03-23T12:36:15.543Z,62.55
2019-03-23T12:41:22.525Z,65.25
2019-03-23T12:46:14.312Z,66.25
2019-03-23T12:51:14.550Z,64.50
2019-03-23T12:56:14.532Z,66.19
2019-03-23T13:01:13.595Z,65.70
2019-03-23T13:06:14.547Z,62.89
2019-03-23T13:11:23.103Z,64.73
2019-03-23T13:16:14.369Z,63.49
2019-03-23T13:21:14.375Z,62.84
2019-03-23T13:26:14.371Z,63.13
2019-03-23T13:31:15.525Z,62.71
2019-03-23T13:36:14.697Z,64.57
2019-03-23T13:41:15.403Z,65.10
2019-03-23T13:46:16.457Z,63.07
2019-03-23T13:51:15.412Z,63.77
2019-03-23T13:56:15.468Z,61.99
2019-03-23T14:01:15.350Z,63.14
2019-03-23T14:06:16.393Z,63.73
2019-03-23T14:11:15.388Z,64.71
2019-03-23T14:16:14.519Z,65.17
2019-03-23T14:21:14.392Z,63.76
2019-03-23T14:26:14.292Z,64.53
2019-03-23T14:31:13.375Z,66.12
2019-03-23T14:36:13.371Z,66.30
2019-03-23T14:41:14.428Z,67.28
2019-03-23T14:46:15.398Z,67.01
2019-03-23T14:51:13.728Z,68.52
2019-03-23T14:56:13.423Z,68.92
2019-03-23T15:01:14.344Z,68.68
2019-03-23T15:06:13.366Z,68.71
2019-03-23T15:11:12.671Z,70.46
2019-03-23T15:16:13.316Z,69.94
2019-03-23T15:21:12.540Z,70.05
2019-03-23T15:26:12.343Z,69.85
2019-03-23T15:31:12.373Z,68.65
2019-03-23T15:36:12.346Z,69.42
2019-03-23T15:41:11.427Z,68.79
2019-03-23T15:46:10.860Z,69.76
2019-03-23T15:51:10.356Z,70.21
2019-03-23T16:01:12.344Z,70.41
2019-03-23T16:06:12.559Z,69.95
2019-03-23T16:11:12.401Z,71.62
2019-03-23T16:16:11.336Z,70.64
2019-03-23T16:21:11.551Z,70.56
2019-03-23T16:26:10.754Z,72.02
2019-03-23T16:31:11.443Z,71.60
2019-03-23T16:36:10.375Z,72.37
2019-03-23T16:41:10.413Z,72.74
2019-03-23T16:46:09.459Z,73.28
2019-03-23T16:51:10.353Z,73.28
2019-03-23T16:56:10.351Z,73.99
2019-03-23T17:01:10.305Z,74.45
2019-03-23T17:06:10.374Z,74.38
2019-03-23T17:11:09.533Z,75.21
2019-03-23T17:16:10.384Z,75.58
2019-03-23T17:21:11.334Z,76.26
2019-03-23T17:26:10.337Z,75.26
2019-03-23T17:31:09.332Z,76.24
2019-03-23T17:36:09.391Z,76.80
2019-03-23T17:41:10.414Z,77.36
2019-03-23T17:46:08.445Z,77.43
2019-03-23T17:51:07.408Z,76.85
2019-03-23T17:56:06.800Z,78.10
2019-03-23T18:01:06.418Z,78.45
2019-03-23T18:06:06.347Z,78.32
2019-03-23T18:11:06.336Z,78.81
2019-03-23T18:16:06.361Z,78.50
2019-03-23T18:21:06.321Z,78.89
2019-03-23T18:26:05.314Z,79.29
2019-03-23T18:31:05.372Z,79.64
2019-03-23T18:36:04.460Z,79.64
2019-03-23T18:41:03.325Z,80.45
2019-03-23T18:46:04.683Z,81.37
2019-03-23T18:51:04.387Z,82.42
2019-03-23T18:56:04.797Z,83.14
2019-03-23T19:01:03.312Z,84.20
2019-03-23T19:06:03.560Z,84.37
2019-03-23T19:11:03.386Z,84.73
2019-03-23T19:16:03.356Z,82.68
2019-03-23T19:21:02.443Z,82.89
2019-03-23T19:26:02.405Z,82.77
2019-03-23T19:31:03.390Z,83.28
2019-03-23T19:36:03.412Z,83.60
2019-03-23T19:41:02.708Z,83.58
2019-03-23T19:46:02.700Z,83.84
2019-03-23T19:51:03.740Z,83.68
2019-03-23T19:56:02.583Z,84.15
2019-03-23T20:01:02.446Z,84.41
2019-03-23T20:06:01.452Z,84.67
2019-03-23T20:11:00.357Z,85.28
2019-03-23T20:16:00.389Z,85.25
2019-03-23T20:20:59.910Z,85.30
2019-03-23T20:25:58.641Z,85.50
2019-03-23T20:30:58.453Z,85.91
2019-03-23T20:35:58.523Z,85.96
2019-03-23T20:40:58.412Z,86.00
2019-03-23T20:45:58.490Z,85.66
2019-03-23T20:50:57.397Z,85.90
2019-03-23T20:55:56.800Z,85.86
2019-03-23T21:00:55.730Z,86.03
2019-03-23T21:05:55.451Z,86.02
2019-03-23T21:10:56.409Z,85.84
2019-03-23T21:15:56.343Z,85.54
2019-03-23T21:20:55.524Z,85.17
2019-03-23T21:25:55.397Z,85.08
2019-03-23T21:30:56.375Z,84.66
2019-03-23T21:35:55.499Z,84.17
2019-03-23T21:40:54.639Z,83.72
2019-03-23T21:45:54.702Z,83.32
2019-03-23T21:50:55.393Z,83.02
2019-03-23T21:55:55.406Z,82.20
2019-03-23T22:00:55.578Z,80.99
2019-03-23T22:05:55.551Z,80.78
2019-03-23T22:10:55.882Z,80.66
2019-03-23T22:15:55.822Z,80.36
2019-03-23T22:20:56.962Z,79.23
2019-03-23T22:25:55.927Z,79.96
2019-03-23T22:30:55.859Z,79.45
2019-03-23T22:35:55.865Z,79.48
2019-03-23T22:40:55.872Z,79.72
2019-03-23T22:45:55.974Z,80.32
2019-03-23T22:50:55.101Z,80.07
2019-03-23T22:55:54.898Z,80.17
2019-03-23T23:00:55.033Z,80.13
2019-03-23T23:05:54.264Z,80.01
2019-03-23T23:10:55.031Z,79.75
2019-03-23T23:15:54.039Z,79.37
2019-03-23T23:20:54.864Z,79.62
2019-03-23T23:25:54.839Z,80.41
2019-03-23T23:30:54.319Z,79.29
2019-03-23T23:35:53.409Z,80.11
2019-03-23T23:40:52.883Z,80.46
2019-03-23T23:45:52.863Z,80.92
2019-03-23T23:50:51.838Z,81.52
2019-03-23T23:55:51.137Z,81.81
